sensor_id;sensor_type;location;lat;lon;timestamp;temperature;humidity
74484;SHT31;62942;52.462;10.846;2024-02-23T00:00:40;9.3;72.2
74484;SHT31;62942;52.462;10.846;2024-02-23T00:01:40;9.3;71.9
74484;SHT31;62942;52.462;10.846;2024-02-23T00:02:50;9.3;72
74484;SHT31;62942;52.462;10.846;2024-02-23T00:03:50;9.3;72.2
74484;SHT31;62942;52.462;10.846;2024-02-23T00:05:00;9.3;70.2
74484;SHT31;62942;52.462;10.846;2024-02-23T00:06:00;9.3;69.4
74484;SHT31;62942;52.462;10.846;2024-02-23T00:07:10;9.3;69.3
74484;SHT31;62942;52.462;10.846;2024-02-23T00:08:20;9.3;69.3
74484;SHT31;62942;52.462;10.846;2024-02-23T00:09:20;9.3;69.5
74484;SHT31;62942;52.462;10.846;2024-02-23T00:10:20;9.2;69.5
74484;SHT31;62942;52.462;10.846;2024-02-23T00:11:30;9.2;69.7
74484;SHT31;62942;52.462;10.846;2024-02-23T00:12:30;9.2;70.1
74484;SHT31;62942;52.462;10.846;2024-02-23T00:13:40;9.1;69.5
74484;SHT31;62942;52.462;10.846;2024-02-23T00:14:50;9.1;69.7
74484;SHT31;62942;52.462;10.846;2024-02-23T00:15:50;9.1;69.7
74484;SHT31;62942;52.462;10.846;2024-02-23T00:17:00;9.1;69.9
74484;SHT31;62942;52.462;10.846;2024-02-23T00:18:00;9.1;69.7
74484;SHT31;62942;52.462;10.846;2024-02-23T00:19:00;9.1;69.5
74484;SHT31;62942;52.462;10.846;2024-02-23T00:20:10;9.1;69.8
74484;SHT31;62942;52.462;10.846;2024-02-23T00:21:10;9.1;69.9
74484;SHT31;62942;52.462;10.846;2024-02-23T00:22:10;9.1;70.1
74484;SHT31;62942;52.462;10.846;2024-02-23T00:23:10;9;69.9
74484;SHT31;62942;52.462;10.846;2024-02-23T00:24:20;9;70.2
74484;SHT31;62942;52.462;10.846;2024-02-23T00:25:20;9;70.5
74484;SHT31;62942;52.462;10.846;2024-02-23T00:26:30;8.9;70.8
74484;SHT31;62942;52.462;10.846;2024-02-23T00:27:30;8.8;71
74484;SHT31;62942;52.462;10.846;2024-02-23T00:28:40;8.8;70.8
74484;SHT31;62942;52.462;10.846;2024-02-23T00:29:50;8.8;70.9
74484;SHT31;62942;52.462;10.846;2024-02-23T00:30:50;8.8;71
74484;SHT31;62942;52.462;10.846;2024-02-23T00:31:50;8.8;71.2
74484;SHT31;62942;52.462;10.846;2024-02-23T00:33:00;8.8;71.4
74484;SHT31;62942;52.462;10.846;2024-02-23T00:34:10;8.7;71.7
74484;SHT31;62942;52.462;10.846;2024-02-23T00:35:20;8.7;71.8
74484;SHT31;62942;52.462;10.846;2024-02-23T00:36:20;8.7;71.9
74484;SHT31;62942;52.462;10.846;2024-02-23T00:37:20;8.6;72.1
74484;SHT31;62942;52.462;10.846;2024-02-23T00:38:30;8.6;72.4
74484;SHT31;62942;52.462;10.846;2024-02-23T00:39:31;8.5;72.5
74484;SHT31;62942;52.462;10.846;2024-02-23T00:40:40;8.5;72.8
74484;SHT31;62942;52.462;10.846;2024-02-23T00:41:40;8.5;72.8
74484;SHT31;62942;52.462;10.846;2024-02-23T00:42:40;8.5;72.9
74484;SHT31;62942;52.462;10.846;2024-02-23T00:43:40;8.5;72.9
74484;SHT31;62942;52.462;10.846;2024-02-23T00:44:40;8.5;73.2
74484;SHT31;62942;52.462;10.846;2024-02-23T00:45:40;8.4;73.5
74484;SHT31;62942;52.462;10.846;2024-02-23T00:46:50;8.4;73.5
74484;SHT31;62942;52.462;10.846;2024-02-23T00:48:00;8.4;73.6
74484;SHT31;62942;52.462;10.846;2024-02-23T00:49:10;8.4;73.7
74484;SHT31;62942;52.462;10.846;2024-02-23T00:50:20;8.4;73.7
74484;SHT31;62942;52.462;10.846;2024-02-23T00:51:20;8.4;73.6
74484;SHT31;62942;52.462;10.846;2024-02-23T00:52:30;8.4;73.6
74484;SHT31;62942;52.462;10.846;2024-02-23T00:53:40;8.5;73.4
74484;SHT31;62942;52.462;10.846;2024-02-23T00:54:40;8.5;73.2
74484;SHT31;62942;52.462;10.846;2024-02-23T00:55:50;8.5;73.2
74484;SHT31;62942;52.462;10.846;2024-02-23T00:56:50;8.5;73.2
74484;SHT31;62942;52.462;10.846;2024-02-23T00:58:00;8.5;73.2
74484;SHT31;62942;52.462;10.846;2024-02-23T00:59:10;8.5;72.7
74484;SHT31;62942;52.462;10.846;2024-02-23T01:00:20;8.4;72.8
74484;SHT31;62942;52.462;10.846;2024-02-23T01:01:20;8.5;72.5
74484;SHT31;62942;52.462;10.846;2024-02-23T01:02:20;8.5;72.4
74484;SHT31;62942;52.462;10.846;2024-02-23T01:03:30;8.5;71.6
74484;SHT31;62942;52.462;10.846;2024-02-23T01:04:30;8.4;71.7
74484;SHT31;62942;52.462;10.846;2024-02-23T01:05:30;8.5;71.2
74484;SHT31;62942;52.462;10.846;2024-02-23T01:06:30;8.5;71.3
74484;SHT31;62942;52.462;10.846;2024-02-23T01:07:40;8.5;71.6
74484;SHT31;62942;52.462;10.846;2024-02-23T01:08:41;8.5;71.7
74484;SHT31;62942;52.462;10.846;2024-02-23T01:09:50;8.5;72
74484;SHT31;62942;52.462;10.846;2024-02-23T01:11:00;8.5;72.2
74484;SHT31;62942;52.462;10.846;2024-02-23T01:12:00;8.5;72.4
74484;SHT31;62942;52.462;10.846;2024-02-23T01:13:00;8.5;72.4
74484;SHT31;62942;52.462;10.846;2024-02-23T01:14:10;8.5;72.4
74484;SHT31;62942;52.462;10.846;2024-02-23T01:15:10;8.5;71.9
74484;SHT31;62942;52.462;10.846;2024-02-23T01:16:10;8.5;71.5
74484;SHT31;62942;52.462;10.846;2024-02-23T01:17:10;8.6;71.2
74484;SHT31;62942;52.462;10.846;2024-02-23T01:18:20;8.6;71
74484;SHT31;62942;52.462;10.846;2024-02-23T01:19:20;8.7;71.2
74484;SHT31;62942;52.462;10.846;2024-02-23T01:20:20;8.7;71.2
74484;SHT31;62942;52.462;10.846;2024-02-23T01:21:20;8.7;71.1
74484;SHT31;62942;52.462;10.846;2024-02-23T01:22:30;8.7;70.6
74484;SHT31;62942;52.462;10.846;2024-02-23T01:23:40;8.7;69.5
74484;SHT31;62942;52.462;10.846;2024-02-23T01:24:40;8.8;69
74484;SHT31;62942;52.462;10.846;2024-02-23T01:25:40;8.8;69.3
74484;SHT31;62942;52.462;10.846;2024-02-23T01:26:50;8.8;69.2
74484;SHT31;62942;52.462;10.846;2024-02-23T01:28:00;8.8;69.4
74484;SHT31;62942;52.462;10.846;2024-02-23T01:29:00;8.8;67.6
74484;SHT31;62942;52.462;10.846;2024-02-23T01:30:00;8.8;66.9
74484;SHT31;62942;52.462;10.846;2024-02-23T01:31:10;8.9;67.4
74484;SHT31;62942;52.462;10.846;2024-02-23T01:32:20;8.9;66.6
74484;SHT31;62942;52.462;10.846;2024-02-23T01:33:30;8.9;66.3
74484;SHT31;62942;52.462;10.846;2024-02-23T01:34:30;8.9;66.5
74484;SHT31;62942;52.462;10.846;2024-02-23T01:35:40;9;66.5
74484;SHT31;62942;52.462;10.846;2024-02-23T01:36:40;9;66
74484;SHT31;62942;52.462;10.846;2024-02-23T01:37:50;9;65.9
74484;SHT31;62942;52.462;10.846;2024-02-23T01:39:00;9;65.3
74484;SHT31;62942;52.462;10.846;2024-02-23T01:40:00;9;65.7
74484;SHT31;62942;52.462;10.846;2024-02-23T01:41:10;9;65
74484;SHT31;62942;52.462;10.846;2024-02-23T01:42:20;9;65.1
74484;SHT31;62942;52.462;10.846;2024-02-23T01:43:20;9;64.9
74484;SHT31;62942;52.462;10.846;2024-02-23T01:44:30;9;64.8
74484;SHT31;62942;52.462;10.846;2024-02-23T01:45:40;9;65.3
74484;SHT31;62942;52.462;10.846;2024-02-23T01:46:40;8.9;65
74484;SHT31;62942;52.462;10.846;2024-02-23T01:47:40;8.9;65
74484;SHT31;62942;52.462;10.846;2024-02-23T01:48:50;8.9;64.1
74484;SHT31;62942;52.462;10.846;2024-02-23T01:49:50;9;64.1
74484;SHT31;62942;52.462;10.846;2024-02-23T01:51:00;9;63.3
74484;SHT31;62942;52.462;10.846;2024-02-23T01:52:00;9;63.6
74484;SHT31;62942;52.462;10.846;2024-02-23T01:53:01;9;64.1
74484;SHT31;62942;52.462;10.846;2024-02-23T01:54:10;9;63.8
74484;SHT31;62942;52.462;10.846;2024-02-23T01:55:20;9;63.5
74484;SHT31;62942;52.462;10.846;2024-02-23T01:56:20;8.9;63.1
74484;SHT31;62942;52.462;10.846;2024-02-23T01:57:30;8.9;63.5
74484;SHT31;62942;52.462;10.846;2024-02-23T01:58:40;8.9;64
74484;SHT31;62942;52.462;10.846;2024-02-23T01:59:40;8.9;64.1
74484;SHT31;62942;52.462;10.846;2024-02-23T02:00:50;8.8;64
74484;SHT31;62942;52.462;10.846;2024-02-23T02:01:50;8.8;64.2
74484;SHT31;62942;52.462;10.846;2024-02-23T02:02:50;8.8;63.9
74484;SHT31;62942;52.462;10.846;2024-02-23T02:04:00;8.8;64
74484;SHT31;62942;52.462;10.846;2024-02-23T02:05:00;8.8;64
74484;SHT31;62942;52.462;10.846;2024-02-23T02:06:10;8.7;64.4
74484;SHT31;62942;52.462;10.846;2024-02-23T02:07:20;8.7;64.3
74484;SHT31;62942;52.462;10.846;2024-02-23T02:08:30;8.6;64.8
74484;SHT31;62942;52.462;10.846;2024-02-23T02:09:30;8.6;64.7
74484;SHT31;62942;52.462;10.846;2024-02-23T02:10:40;8.6;64.7
74484;SHT31;62942;52.462;10.846;2024-02-23T02:11:44;8.6;65
74484;SHT31;62942;52.462;10.846;2024-02-23T02:12:40;8.6;65.2
74484;SHT31;62942;52.462;10.846;2024-02-23T02:13:50;8.5;65.1
74484;SHT31;62942;52.462;10.846;2024-02-23T02:15:00;8.5;65.1
74484;SHT31;62942;52.462;10.846;2024-02-23T02:16:10;8.5;65.3
74484;SHT31;62942;52.462;10.846;2024-02-23T02:17:20;8.5;65.3
74484;SHT31;62942;52.462;10.846;2024-02-23T02:18:20;8.5;65.7
74484;SHT31;62942;52.462;10.846;2024-02-23T02:19:30;8.5;66.1
74484;SHT31;62942;52.462;10.846;2024-02-23T02:20:40;8.4;66.4
74484;SHT31;62942;52.462;10.846;2024-02-23T02:21:40;8.4;66.8
74484;SHT31;62942;52.462;10.846;2024-02-23T02:22:50;8.3;67.4
74484;SHT31;62942;52.462;10.846;2024-02-23T02:23:50;8.3;67.7
74484;SHT31;62942;52.462;10.846;2024-02-23T02:25:00;8.2;67.9
74484;SHT31;62942;52.462;10.846;2024-02-23T02:26:00;8.2;68.1
74484;SHT31;62942;52.462;10.846;2024-02-23T02:27:10;8.2;68.3
74484;SHT31;62942;52.462;10.846;2024-02-23T02:28:20;8.2;68.5
74484;SHT31;62942;52.462;10.846;2024-02-23T02:29:20;8.1;68.7
74484;SHT31;62942;52.462;10.846;2024-02-23T02:30:30;8.1;68.6
74484;SHT31;62942;52.462;10.846;2024-02-23T02:31:40;8.1;68.7
74484;SHT31;62942;52.462;10.846;2024-02-23T02:32:50;8.1;69.1
74484;SHT31;62942;52.462;10.846;2024-02-23T02:34:00;8.1;69.6
74484;SHT31;62942;52.462;10.846;2024-02-23T02:35:10;8.1;70.2
74484;SHT31;62942;52.462;10.846;2024-02-23T02:36:10;8.1;70.2
74484;SHT31;62942;52.462;10.846;2024-02-23T02:37:20;8.1;70.5
74484;SHT31;62942;52.462;10.846;2024-02-23T02:38:30;8;70.9
74484;SHT31;62942;52.462;10.846;2024-02-23T02:39:30;8;71.2
74484;SHT31;62942;52.462;10.846;2024-02-23T02:40:40;8;71.6
74484;SHT31;62942;52.462;10.846;2024-02-23T02:41:50;8;72
74484;SHT31;62942;52.462;10.846;2024-02-23T02:43:00;7.9;72.7
74484;SHT31;62942;52.462;10.846;2024-02-23T02:44:00;7.8;73.1
74484;SHT31;62942;52.462;10.846;2024-02-23T02:45:00;7.8;73.6
74484;SHT31;62942;52.462;10.846;2024-02-23T02:46:10;7.7;73.6
74484;SHT31;62942;52.462;10.846;2024-02-23T02:47:10;7.7;73.7
74484;SHT31;62942;52.462;10.846;2024-02-23T02:48:20;7.7;74.1
74484;SHT31;62942;52.462;10.846;2024-02-23T02:49:20;7.6;74.4
74484;SHT31;62942;52.462;10.846;2024-02-23T02:50:30;7.6;74.7
74484;SHT31;62942;52.462;10.846;2024-02-23T02:51:30;7.6;75.2
74484;SHT31;62942;52.462;10.846;2024-02-23T02:52:40;7.6;75.4
74484;SHT31;62942;52.462;10.846;2024-02-23T02:53:40;7.6;75.7
74484;SHT31;62942;52.462;10.846;2024-02-23T02:54:40;7.5;75.7
74484;SHT31;62942;52.462;10.846;2024-02-23T02:55:50;7.4;76
74484;SHT31;62942;52.462;10.846;2024-02-23T02:56:50;7.4;76.3
74484;SHT31;62942;52.462;10.846;2024-02-23T02:58:00;7.3;76.5
74484;SHT31;62942;52.462;10.846;2024-02-23T02:59:10;7.2;77
74484;SHT31;62942;52.462;10.846;2024-02-23T03:00:20;7.2;77.2
74484;SHT31;62942;52.462;10.846;2024-02-23T03:01:20;7.2;77.7
74484;SHT31;62942;52.462;10.846;2024-02-23T03:02:20;7.2;77.8
74484;SHT31;62942;52.462;10.846;2024-02-23T03:03:30;7.1;77.9
74484;SHT31;62942;52.462;10.846;2024-02-23T03:04:30;7.1;78
74484;SHT31;62942;52.462;10.846;2024-02-23T03:05:40;7;78.2
74484;SHT31;62942;52.462;10.846;2024-02-23T03:06:50;7;78.4
74484;SHT31;62942;52.462;10.846;2024-02-23T03:08:00;6.9;78.9
74484;SHT31;62942;52.462;10.846;2024-02-23T03:09:10;6.9;78.9
74484;SHT31;62942;52.462;10.846;2024-02-23T03:10:10;6.9;78.8
74484;SHT31;62942;52.462;10.846;2024-02-23T03:11:10;6.9;78.9
74484;SHT31;62942;52.462;10.846;2024-02-23T03:12:20;6.8;78.9
74484;SHT31;62942;52.462;10.846;2024-02-23T03:13:20;6.9;78.8
74484;SHT31;62942;52.462;10.846;2024-02-23T03:14:20;6.8;79.1
74484;SHT31;62942;52.462;10.846;2024-02-23T03:15:30;6.8;79.3
74484;SHT31;62942;52.462;10.846;2024-02-23T03:16:40;6.8;79.3
74484;SHT31;62942;52.462;10.846;2024-02-23T03:17:40;6.8;79.2
74484;SHT31;62942;52.462;10.846;2024-02-23T03:18:40;6.8;79
74484;SHT31;62942;52.462;10.846;2024-02-23T03:19:50;6.7;78.9
74484;SHT31;62942;52.462;10.846;2024-02-23T03:21:00;6.7;79
74484;SHT31;62942;52.462;10.846;2024-02-23T03:22:00;6.7;78.9
74484;SHT31;62942;52.462;10.846;2024-02-23T03:23:10;6.6;78.6
74484;SHT31;62942;52.462;10.846;2024-02-23T03:24:20;6.6;78.8
74484;SHT31;62942;52.462;10.846;2024-02-23T03:25:30;6.6;79.1
74484;SHT31;62942;52.462;10.846;2024-02-23T03:26:30;6.5;79.4
74484;SHT31;62942;52.462;10.846;2024-02-23T03:27:30;6.5;79.4
74484;SHT31;62942;52.462;10.846;2024-02-23T03:28:40;6.4;79.8
74484;SHT31;62942;52.462;10.846;2024-02-23T03:29:40;6.4;79.8
74484;SHT31;62942;52.462;10.846;2024-02-23T03:30:50;6.4;80.1
74484;SHT31;62942;52.462;10.846;2024-02-23T03:32:00;6.3;80.1
74484;SHT31;62942;52.462;10.846;2024-02-23T03:33:10;6.3;80.2
74484;SHT31;62942;52.462;10.846;2024-02-23T03:34:10;6.2;80.4
74484;SHT31;62942;52.462;10.846;2024-02-23T03:35:10;6.2;80.5
74484;SHT31;62942;52.462;10.846;2024-02-23T03:36:20;6.2;80.3
74484;SHT31;62942;52.462;10.846;2024-02-23T03:37:20;6.2;80.3
74484;SHT31;62942;52.462;10.846;2024-02-23T03:38:20;6.2;80.3
74484;SHT31;62942;52.462;10.846;2024-02-23T03:39:30;6.2;80.3
74484;SHT31;62942;52.462;10.846;2024-02-23T03:40:40;6.2;80.5
74484;SHT31;62942;52.462;10.846;2024-02-23T03:41:50;6.2;80.5
74484;SHT31;62942;52.462;10.846;2024-02-23T03:43:00;6.1;80.6
74484;SHT31;62942;52.462;10.846;2024-02-23T03:44:00;6.1;80.5
74484;SHT31;62942;52.462;10.846;2024-02-23T03:45:10;6.1;80.7
74484;SHT31;62942;52.462;10.846;2024-02-23T03:46:20;6.1;80.6
74484;SHT31;62942;52.462;10.846;2024-02-23T03:47:20;6.1;80.6
74484;SHT31;62942;52.462;10.846;2024-02-23T03:48:30;6.1;80.5
74484;SHT31;62942;52.462;10.846;2024-02-23T03:49:40;6.1;80.4
74484;SHT31;62942;52.462;10.846;2024-02-23T03:50:40;6.1;80.4
74484;SHT31;62942;52.462;10.846;2024-02-23T03:51:50;6.1;80.5
74484;SHT31;62942;52.462;10.846;2024-02-23T03:52:50;6.1;80.3
74484;SHT31;62942;52.462;10.846;2024-02-23T03:53:50;6.1;80
74484;SHT31;62942;52.462;10.846;2024-02-23T03:55:00;6.1;79.9
74484;SHT31;62942;52.462;10.846;2024-02-23T03:56:10;6.1;79.8
74484;SHT31;62942;52.462;10.846;2024-02-23T03:57:10;6.1;79.7
74484;SHT31;62942;52.462;10.846;2024-02-23T03:58:20;6.1;79.7
74484;SHT31;62942;52.462;10.846;2024-02-23T03:59:20;6.1;79.6
74484;SHT31;62942;52.462;10.846;2024-02-23T04:00:30;6.1;79.5
74484;SHT31;62942;52.462;10.846;2024-02-23T04:01:40;6.1;79.6
74484;SHT31;62942;52.462;10.846;2024-02-23T04:02:50;6.1;79.6
74484;SHT31;62942;52.462;10.846;2024-02-23T04:04:00;6.1;79.6
74484;SHT31;62942;52.462;10.846;2024-02-23T04:05:10;6.1;79.3
74484;SHT31;62942;52.462;10.846;2024-02-23T04:06:10;6.1;79.3
74484;SHT31;62942;52.462;10.846;2024-02-23T04:07:20;6.1;79.3
74484;SHT31;62942;52.462;10.846;2024-02-23T04:08:30;6.1;79.2
74484;SHT31;62942;52.462;10.846;2024-02-23T04:09:30;6.1;79.3
74484;SHT31;62942;52.462;10.846;2024-02-23T04:10:40;6.1;79.5
74484;SHT31;62942;52.462;10.846;2024-02-23T04:11:40;6;79.6
74484;SHT31;62942;52.462;10.846;2024-02-23T04:12:40;6;79.6
74484;SHT31;62942;52.462;10.846;2024-02-23T04:13:50;6;79.6
74484;SHT31;62942;52.462;10.846;2024-02-23T04:15:00;6;79.6
74484;SHT31;62942;52.462;10.846;2024-02-23T04:16:10;6;79.5
74484;SHT31;62942;52.462;10.846;2024-02-23T04:17:20;6;79.6
74484;SHT31;62942;52.462;10.846;2024-02-23T04:18:30;6.1;79.4
74484;SHT31;62942;52.462;10.846;2024-02-23T04:19:40;6.1;79.2
74484;SHT31;62942;52.462;10.846;2024-02-23T04:20:50;6.1;79.3
74484;SHT31;62942;52.462;10.846;2024-02-23T04:22:00;6.1;79.2
74484;SHT31;62942;52.462;10.846;2024-02-23T04:23:00;6.1;79.2
74484;SHT31;62942;52.462;10.846;2024-02-23T04:24:10;6.1;79
74484;SHT31;62942;52.462;10.846;2024-02-23T04:25:20;6.1;78.8
74484;SHT31;62942;52.462;10.846;2024-02-23T04:26:20;6.1;78.8
74484;SHT31;62942;52.462;10.846;2024-02-23T04:27:20;6.1;78.8
74484;SHT31;62942;52.462;10.846;2024-02-23T04:28:29;6.1;78.7
74484;SHT31;62942;52.462;10.846;2024-02-23T04:29:30;6.1;78.7
74484;SHT31;62942;52.462;10.846;2024-02-23T04:30:40;6.1;78.6
74484;SHT31;62942;52.462;10.846;2024-02-23T04:31:50;6.1;78.6
74484;SHT31;62942;52.462;10.846;2024-02-23T04:33:00;6.1;78.1
74484;SHT31;62942;52.462;10.846;2024-02-23T04:34:10;6.2;78.1
74484;SHT31;62942;52.462;10.846;2024-02-23T04:35:20;6.2;78
74484;SHT31;62942;52.462;10.846;2024-02-23T04:36:20;6.2;78
74484;SHT31;62942;52.462;10.846;2024-02-23T04:37:30;6.2;77.9
74484;SHT31;62942;52.462;10.846;2024-02-23T04:38:40;6.2;77.7
74484;SHT31;62942;52.462;10.846;2024-02-23T04:39:50;6.2;77.7
74484;SHT31;62942;52.462;10.846;2024-02-23T04:41:02;6.2;76.8
74484;SHT31;62942;52.462;10.846;2024-02-23T04:42:10;6.2;76.7
74484;SHT31;62942;52.462;10.846;2024-02-23T04:43:20;6.2;76.5
74484;SHT31;62942;52.462;10.846;2024-02-23T04:44:30;6.2;76.8
74484;SHT31;62942;52.462;10.846;2024-02-23T04:45:40;6.3;76.9
74484;SHT31;62942;52.462;10.846;2024-02-23T04:46:50;6.3;77
74484;SHT31;62942;52.462;10.846;2024-02-23T04:47:50;6.3;77.1
74484;SHT31;62942;52.462;10.846;2024-02-23T04:49:00;6.2;77.1
74484;SHT31;62942;52.462;10.846;2024-02-23T04:50:10;6.3;77.3
74484;SHT31;62942;52.462;10.846;2024-02-23T04:51:20;6.2;77.3
74484;SHT31;62942;52.462;10.846;2024-02-23T04:52:20;6.3;77.1
74484;SHT31;62942;52.462;10.846;2024-02-23T04:53:30;6.2;77.1
74484;SHT31;62942;52.462;10.846;2024-02-23T04:54:30;6.2;76.7
74484;SHT31;62942;52.462;10.846;2024-02-23T04:55:40;6.2;76.6
74484;SHT31;62942;52.462;10.846;2024-02-23T04:56:50;6.2;76.6
74484;SHT31;62942;52.462;10.846;2024-02-23T04:58:00;6.2;76.5
74484;SHT31;62942;52.462;10.846;2024-02-23T04:59:09;6.2;75.9
74484;SHT31;62942;52.462;10.846;2024-02-23T05:00:20;6.2;76.3
74484;SHT31;62942;52.462;10.846;2024-02-23T05:01:34;6.2;76.2
74484;SHT31;62942;52.462;10.846;2024-02-23T05:02:40;6.2;75.6
74484;SHT31;62942;52.462;10.846;2024-02-23T05:03:50;6.2;75.8
74484;SHT31;62942;52.462;10.846;2024-02-23T05:04:50;6.1;75.6
74484;SHT31;62942;52.462;10.846;2024-02-23T05:06:00;6.1;75.5
74484;SHT31;62942;52.462;10.846;2024-02-23T05:06:59;6.1;75.4
74484;SHT31;62942;52.462;10.846;2024-02-23T05:08:10;6.1;75.2
74484;SHT31;62942;52.462;10.846;2024-02-23T05:09:19;6.1;74.3
74484;SHT31;62942;52.462;10.846;2024-02-23T05:10:30;6.1;74.6
74484;SHT31;62942;52.462;10.846;2024-02-23T05:11:40;6.1;74.4
74484;SHT31;62942;52.462;10.846;2024-02-23T05:12:40;6.1;74.3
74484;SHT31;62942;52.462;10.846;2024-02-23T05:13:50;6.2;74.4
74484;SHT31;62942;52.462;10.846;2024-02-23T05:15:00;6.2;74.2
74484;SHT31;62942;52.462;10.846;2024-02-23T05:16:09;6.2;74.3
74484;SHT31;62942;52.462;10.846;2024-02-23T05:17:09;6.2;74.4
74484;SHT31;62942;52.462;10.846;2024-02-23T05:18:20;6.2;74.4
74484;SHT31;62942;52.462;10.846;2024-02-23T05:19:19;6.2;74.5
74484;SHT31;62942;52.462;10.846;2024-02-23T05:20:30;6.2;74.4
74484;SHT31;62942;52.462;10.846;2024-02-23T05:21:39;6.2;74.4
74484;SHT31;62942;52.462;10.846;2024-02-23T05:22:39;6.2;74.2
74484;SHT31;62942;52.462;10.846;2024-02-23T05:23:49;6.2;74.1
74484;SHT31;62942;52.462;10.846;2024-02-23T05:24:50;6.2;74
74484;SHT31;62942;52.462;10.846;2024-02-23T05:26:00;6.2;73.9
74484;SHT31;62942;52.462;10.846;2024-02-23T05:27:09;6.2;73.8
74484;SHT31;62942;52.462;10.846;2024-02-23T05:28:20;6.2;73.7
74484;SHT31;62942;52.462;10.846;2024-02-23T05:29:20;6.2;73.8
74484;SHT31;62942;52.462;10.846;2024-02-23T05:30:30;6.2;73.7
74484;SHT31;62942;52.462;10.846;2024-02-23T05:31:43;6.2;73.8
74484;SHT31;62942;52.462;10.846;2024-02-23T05:32:42;6.2;74
74484;SHT31;62942;52.462;10.846;2024-02-23T05:33:49;6.2;74.2
74484;SHT31;62942;52.462;10.846;2024-02-23T05:34:49;6.2;74.1
74484;SHT31;62942;52.462;10.846;2024-02-23T05:35:59;6.2;74.1
74484;SHT31;62942;52.462;10.846;2024-02-23T05:37:09;6.2;74
74484;SHT31;62942;52.462;10.846;2024-02-23T05:38:19;6.2;74.2
74484;SHT31;62942;52.462;10.846;2024-02-23T05:39:29;6.2;74.4
74484;SHT31;62942;52.462;10.846;2024-02-23T05:40:39;6.2;74.4
74484;SHT31;62942;52.462;10.846;2024-02-23T05:41:49;6.2;74.1
74484;SHT31;62942;52.462;10.846;2024-02-23T05:42:59;6.2;74
74484;SHT31;62942;52.462;10.846;2024-02-23T05:44:09;6.2;74.2
74484;SHT31;62942;52.462;10.846;2024-02-23T05:45:20;6.2;74.2
74484;SHT31;62942;52.462;10.846;2024-02-23T05:46:19;6.2;74.2
74484;SHT31;62942;52.462;10.846;2024-02-23T05:47:19;6.2;74.3
74484;SHT31;62942;52.462;10.846;2024-02-23T05:48:29;6.2;74.3
74484;SHT31;62942;52.462;10.846;2024-02-23T05:49:39;6.2;74.1
74484;SHT31;62942;52.462;10.846;2024-02-23T05:50:49;6.2;74.3
74484;SHT31;62942;52.462;10.846;2024-02-23T05:51:59;6.1;74.4
74484;SHT31;62942;52.462;10.846;2024-02-23T05:52:59;6.1;74.5
74484;SHT31;62942;52.462;10.846;2024-02-23T05:54:09;6;74.5
74484;SHT31;62942;52.462;10.846;2024-02-23T05:55:19;6;74.5
74484;SHT31;62942;52.462;10.846;2024-02-23T05:56:19;6;74.6
74484;SHT31;62942;52.462;10.846;2024-02-23T05:57:29;5.9;74.7
74484;SHT31;62942;52.462;10.846;2024-02-23T05:58:29;5.9;74.8
74484;SHT31;62942;52.462;10.846;2024-02-23T05:59:39;5.8;75
74484;SHT31;62942;52.462;10.846;2024-02-23T06:00:39;5.8;75
74484;SHT31;62942;52.462;10.846;2024-02-23T06:01:39;5.7;75.1
74484;SHT31;62942;52.462;10.846;2024-02-23T06:02:49;5.7;74.8
74484;SHT31;62942;52.462;10.846;2024-02-23T06:03:59;5.7;75.1
74484;SHT31;62942;52.462;10.846;2024-02-23T06:04:59;5.7;75.1
74484;SHT31;62942;52.462;10.846;2024-02-23T06:06:09;5.7;75.1
74484;SHT31;62942;52.462;10.846;2024-02-23T06:07:09;5.7;75.1
74484;SHT31;62942;52.462;10.846;2024-02-23T06:08:19;5.6;75.1
74484;SHT31;62942;52.462;10.846;2024-02-23T06:09:29;5.6;75.2
74484;SHT31;62942;52.462;10.846;2024-02-23T06:10:29;5.6;75.3
74484;SHT31;62942;52.462;10.846;2024-02-23T06:11:39;5.5;75.3
74484;SHT31;62942;52.462;10.846;2024-02-23T06:12:49;5.5;75.3
74484;SHT31;62942;52.462;10.846;2024-02-23T06:13:59;5.5;75.3
74484;SHT31;62942;52.462;10.846;2024-02-23T06:14:59;5.5;75.4
74484;SHT31;62942;52.462;10.846;2024-02-23T06:16:09;5.5;75.5
74484;SHT31;62942;52.462;10.846;2024-02-23T06:17:19;5.5;75.4
74484;SHT31;62942;52.462;10.846;2024-02-23T06:18:19;5.5;75.4
74484;SHT31;62942;52.462;10.846;2024-02-23T06:19:29;5.5;75.4
74484;SHT31;62942;52.462;10.846;2024-02-23T06:20:39;5.5;74.9
74484;SHT31;62942;52.462;10.846;2024-02-23T06:21:39;5.5;74.9
74484;SHT31;62942;52.462;10.846;2024-02-23T06:22:49;5.5;75
74484;SHT31;62942;52.462;10.846;2024-02-23T06:23:59;5.5;75
74484;SHT31;62942;52.462;10.846;2024-02-23T06:24:59;5.6;74.9
74484;SHT31;62942;52.462;10.846;2024-02-23T06:26:10;5.6;74.9
74484;SHT31;62942;52.462;10.846;2024-02-23T06:27:19;5.6;74.8
74484;SHT31;62942;52.462;10.846;2024-02-23T06:28:19;5.6;74.7
74484;SHT31;62942;52.462;10.846;2024-02-23T06:29:29;5.7;74.6
74484;SHT31;62942;52.462;10.846;2024-02-23T06:30:39;5.7;74.5
74484;SHT31;62942;52.462;10.846;2024-02-23T06:31:39;5.7;74.3
74484;SHT31;62942;52.462;10.846;2024-02-23T06:32:49;5.8;74.1
74484;SHT31;62942;52.462;10.846;2024-02-23T06:33:59;5.8;74
74484;SHT31;62942;52.462;10.846;2024-02-23T06:35:09;5.8;73.7
74484;SHT31;62942;52.462;10.846;2024-02-23T06:36:09;5.9;73.7
74484;SHT31;62942;52.462;10.846;2024-02-23T06:37:19;5.9;73.5
74484;SHT31;62942;52.462;10.846;2024-02-23T06:38:19;5.9;73.3
74484;SHT31;62942;52.462;10.846;2024-02-23T06:39:29;6;73.3
74484;SHT31;62942;52.462;10.846;2024-02-23T06:40:29;6;73.2
74484;SHT31;62942;52.462;10.846;2024-02-23T06:41:39;6;73.3
74484;SHT31;62942;52.462;10.846;2024-02-23T06:42:39;6;73.2
74484;SHT31;62942;52.462;10.846;2024-02-23T06:43:39;6.1;73.1
74484;SHT31;62942;52.462;10.846;2024-02-23T06:44:49;6;72.9
74484;SHT31;62942;52.462;10.846;2024-02-23T06:46:03;6.1;72.8
74484;SHT31;62942;52.462;10.846;2024-02-23T06:47:09;6.1;72.9
74484;SHT31;62942;52.462;10.846;2024-02-23T06:48:20;6.1;72.9
74484;SHT31;62942;52.462;10.846;2024-02-23T06:49:19;6.1;72.7
74484;SHT31;62942;52.462;10.846;2024-02-23T06:50:29;6.1;72.8
74484;SHT31;62942;52.462;10.846;2024-02-23T06:51:39;6.1;72.8
74484;SHT31;62942;52.462;10.846;2024-02-23T06:52:49;6.1;72.8
74484;SHT31;62942;52.462;10.846;2024-02-23T06:53:49;6.1;72.9
74484;SHT31;62942;52.462;10.846;2024-02-23T06:54:59;6.1;73
74484;SHT31;62942;52.462;10.846;2024-02-23T06:56:09;6.1;72.6
74484;SHT31;62942;52.462;10.846;2024-02-23T06:57:19;6.2;72.4
74484;SHT31;62942;52.462;10.846;2024-02-23T06:58:29;6.2;72.3
74484;SHT31;62942;52.462;10.846;2024-02-23T06:59:39;6.2;72
74484;SHT31;62942;52.462;10.846;2024-02-23T07:00:40;6.2;72.1
74484;SHT31;62942;52.462;10.846;2024-02-23T07:01:49;6.3;71.9
74484;SHT31;62942;52.462;10.846;2024-02-23T07:02:59;6.3;71.8
74484;SHT31;62942;52.462;10.846;2024-02-23T07:03:59;6.3;71.5
74484;SHT31;62942;52.462;10.846;2024-02-23T07:05:09;6.3;71.7
74484;SHT31;62942;52.462;10.846;2024-02-23T07:06:09;6.3;71.8
74484;SHT31;62942;52.462;10.846;2024-02-23T07:07:09;6.4;71.6
74484;SHT31;62942;52.462;10.846;2024-02-23T07:08:19;6.4;71.5
74484;SHT31;62942;52.462;10.846;2024-02-23T07:09:19;6.4;71.4
74484;SHT31;62942;52.462;10.846;2024-02-23T07:10:29;6.4;71.4
74484;SHT31;62942;52.462;10.846;2024-02-23T07:11:39;6.4;71.3
74484;SHT31;62942;52.462;10.846;2024-02-23T07:12:49;6.4;71
74484;SHT31;62942;52.462;10.846;2024-02-23T07:13:59;6.5;70.6